• Join FlightAware (Why Join?)
  • Login
  • US Flag 
10:33AM EST


 

Airport Tracker/Info


-or-


 

Live Flight TrackerFlight Track Log ✈ GJS3657 ✈ 24-Jul-2013 ✈ KGSO - KORD

Flight Track Log - Related Links

Times and Time Zones

All times are in EDT time to prevent confusion due to time zone crossing. See the GJS3657 flight status page for this flight to view local times or setup timezone preferences in your user account.

Time Position Orientation Groundspeed Altitude Reporting Facility
EDT Latitude Longitude Course Direction KTS MPH feet Rate Location/Type
06:43PM 36.1756 -79.8819 307° West 230 265 4,200  Level Atlanta Center
06:44PM 36.2094 -79.9575 299° West 263 303 6,400 2,340 Climbing Atlanta Center
06:45PM 36.2456 -80.0406 298° West 272 313 8,900 2,340 Climbing Atlanta Center
06:46PM 36.2881 -80.1339 299° West 280 322 11,100 1,800 Climbing Atlanta Center
06:47PM 36.3311 -80.2375 297° West 308 354 12,600 1,620 Climbing Atlanta Center
06:48PM 36.4446 -80.5688 307° West  Level FlightAware Approximate
06:48PM 36.3883 -80.3353 306° West 331 381 14,400  Level Atlanta Center
06:49PM 36.4758 -80.4008 329° Northwest 343 395 16,300 1,800 Climbing Atlanta Center
06:50PM 36.5567 -80.4567 331° Northwest 362 417 18,000 1,680 Climbing Atlanta Center
06:51PM 36.6481 -80.5197 331° Northwest 368 423 19,700 1,440 Climbing Atlanta Center
06:52PM 36.7544 -80.5928 331° Northwest 384 442 21,000 1,380 Climbing Atlanta Center
06:53PM 36.8503 -80.6667 328° Northwest 396 456 22,600 1,260 Climbing Atlanta Center
06:55PM 37.0661 -80.8186 331° Northwest 409 471 25,200 1,140 Climbing Indianapolis Center
06:56PM 37.1642 -80.8906 330° Northwest 417 480 26,400 960 Climbing Indianapolis Center
06:57PM 37.2611 -80.9617 330° Northwest 415 478 27,300 960 Climbing Indianapolis Center
06:58PM 37.3822 -81.0486 330° Northwest 425 489 28,500 900 Climbing Indianapolis Center
06:59PM 37.4864 -81.1150 333° Northwest 431 496 29,200 780 Climbing Indianapolis Center
07:00PM 37.6067 -81.1522 346° North 451 519 30,200 780 Climbing Indianapolis Center
07:01PM 37.7250 -81.1906 346° North 450 518 30,900 720 Climbing Indianapolis Center
07:02PM 37.8608 -81.2386 344° North 456 525 31,700 720 Climbing Indianapolis Center
07:03PM 37.9889 -81.2653 351° North 465 535 32,500 840 Climbing Indianapolis Center
07:04PM 38.1147 -81.2911 351° North 460 529 33,500 960 Climbing Indianapolis Center
07:06PM 38.2428 -81.3047 355° North 461 531 34,500 840 Climbing Indianapolis Center
07:07PM 38.3978 -81.3053 360° North 467 537 35,300 720 Climbing Indianapolis Center
07:08PM 38.5108 -81.3656 337° Northwest 445 512 36,000 660 Climbing Indianapolis Center
07:09PM 38.5908 -81.4767 313° West 414 476 36,700 660 Climbing Indianapolis Center
07:10PM 38.6683 -81.5867 312° West 414 476 37,400 600 Climbing Indianapolis Center
07:11PM 38.7442 -81.6986 311° West 415 478 38,000 240 Climbing Indianapolis Center
07:12PM 38.8250 -81.8172 311° West 418 481 38,000  Level Indianapolis Center
07:13PM 38.9003 -81.9294 311° West 416 479 38,000  Level Indianapolis Center
07:14PM 38.9769 -82.0433 311° West 419 482 38,000  Level Indianapolis Center
07:15PM 39.0525 -82.1575 310° West 420 483 38,000  Level Indianapolis Center
07:16PM 39.1442 -82.2958 311° West 423 487 38,000  Level Indianapolis Center
07:17PM 39.2206 -82.4086 311° West 418 481 38,000  Level Indianapolis Center
07:18PM 39.2925 -82.5192 310° West 414 476 38,000  Level Indianapolis Center
07:19PM 39.3664 -82.6317 310° West 408 470 38,000  Level Indianapolis Center
07:20PM 39.4389 -82.7411 311° West 401 461 38,000 -60 Level Indianapolis Center
07:21PM 39.5108 -82.8519 310° West 399 459 37,900 -480 Descending Indianapolis Center
07:22PM 39.5964 -82.9833 310° West 405 466 37,100 -480 Descending Indianapolis Center
07:23PM 39.6692 -83.0961 310° West 404 465 37,000 -60 Descending Indianapolis Center
07:24PM 39.7428 -83.2092 310° West 406 467 37,000  Level Indianapolis Center
07:25PM 39.8181 -83.3250 310° West 417 480 37,000  Level Indianapolis Center
07:26PM 39.8950 -83.4461 310° West 424 488 37,000  Level Indianapolis Center
07:27PM 39.9783 -83.5747 310° West 422 486 37,000  Level Indianapolis Center
07:28PM 40.0514 -83.6897 310° West 414 476 37,000  Level Indianapolis Center
07:29PM 40.1239 -83.8039 310° West 409 471 37,000  Level Indianapolis Center
07:30PM 40.1978 -83.9197 310° West 411 473 37,000 -180 Level Indianapolis Center
07:31PM 40.2700 -84.0375 309° West 412 474 36,700 -660 Descending Indianapolis Center
07:32PM 40.3428 -84.1525 310° West 408 470 35,700 -1,080 Descending Indianapolis Center
07:33PM 40.4142 -84.2664 309° West 402 463 34,500 -840 Descending Indianapolis Center
07:34PM 40.4986 -84.4025 309° West 408 470 34,000 -300 Descending Indianapolis Center
07:35PM 40.5733 -84.5233 309° West 421 484 34,000  Level Indianapolis Center
07:36PM 40.6508 -84.6475 309° West 434 499 34,000 -180 Level Indianapolis Center
07:38PM 40.7253 -84.7764 307° West 438 504 33,700 -660 Descending Indianapolis Center
07:39PM 40.7856 -84.9133 300° West 430 495 32,700 -840 Descending Indianapolis Center
07:40PM 40.8450 -85.0469 300° West 426 490 32,000 -360 Descending Indianapolis Center
07:41PM 40.9056 -85.1811 301° West 428 493 32,000 -600 Level Indianapolis Center
07:42PM 40.9786 -85.3444 301° West 439 505 30,800 -1,260 Descending Chicago Center
07:43PM 41.0414 -85.4856 301° West 443 510 29,300 -1,500 Descending Chicago Center
07:44PM 41.1031 -85.6250 300° West 439 505 27,700 -1,440 Descending Chicago Center
07:45PM 41.1633 -85.7617 300° West 431 496 26,400 -1,320 Descending Chicago Center
07:46PM 41.2333 -85.9222 300° West 418 481 25,000 -900 Descending Chicago Center
07:47PM 41.2700 -86.0653 289° West 411 473 24,600 -1,020 Descending Chicago Center
07:48PM 41.3069 -86.2064 289° West 407 468 23,000 -1,560 Descending Chicago Center
07:49PM 41.3456 -86.3450 290° West 401 461 21,400 -1,500 Descending Chicago Center
07:50PM 41.3817 -86.4842 289° West 399 459 19,900 -1,500 Descending Chicago Center
07:51PM 41.4189 -86.6197 290° West 394 453 18,400 -1,560 Descending Chicago Center
07:52PM 41.4606 -86.7742 290° West 378 435 16,700 -1,500 Descending Chicago Center
07:53PM 41.4933 -86.9033 289° West 371 427 15,300 -1,380 Descending Chicago Center
07:54PM 41.5247 -87.0281 289° West 360 414 13,900 -1,320 Descending Chicago Center
07:55PM 41.5561 -87.1469 289° West 347 399 12,600 -1,380 Descending Chicago Center
07:56PM 41.5936 -87.2625 293° West 341 392 11,100 -1,260 Descending Chicago Center
07:57PM 41.6647 -87.3806 309° West 342 394 10,000 -540 Descending Chicago Center
07:58PM 41.7214 -87.4747 309° West 332 382 10,000 -360 Level Chicago Center
07:59PM 41.7714 -87.5561 309° West 287 330 9,300 -1,140 Descending Chicago Center
08:00PM 41.8142 -87.6342 306° West 265 305 7,700 -1,140 Descending Chicago Center
08:01PM 41.8103 -87.7553 268° West 275 316 7,000 -720 Descending Chicago Center
08:02PM 41.8044 -87.8528 265° West 268 308 6,300 -1,080 Descending Chicago Center
08:03PM 41.7994 -87.9494 266° West 266 306 4,800 -1,140 Descending Chicago Center
08:04PM 41.8158 -88.0253 286° West 244 281 4,000 -960 Descending Chicago Center
08:06PM 41.8833 -87.9833 25° Northeast 211 243 2,800 -1,080 Descending Chicago TRACON
08:07PM 41.9167 -87.9333 48° Northeast 159 183 1,600 -900 Descending Chicago TRACON
08:08PM 41.9500 -87.9167 20° North 131 151 1,000 -720 Descending Chicago TRACON
08:10PM 41.9667 -87.9000 North  Level FlightAware Approximate